sensor_id;sensor_type;location;lat;lon;timestamp;pressure;altitude;pressure_sealevel;temperature;humidity
24486;BME280;13449;49.374;8.584;2023-11-19T00:00:34;100602.25;;;7.98;100.00
24486;BME280;13449;49.374;8.584;2023-11-19T00:03:01;100599.63;;;7.98;100.00
24486;BME280;13449;49.374;8.584;2023-11-19T00:05:28;100602.06;;;8.01;100.00
24486;BME280;13449;49.374;8.584;2023-11-19T00:07:55;100595.88;;;8.02;100.00
24486;BME280;13449;49.374;8.584;2023-11-19T00:10:21;100599.22;;;8.04;100.00
24486;BME280;13449;49.374;8.584;2023-11-19T00:12:50;100597.38;;;8.06;100.00
24486;BME280;13449;49.374;8.584;2023-11-19T00:15:17;100598.84;;;8.10;100.00
24486;BME280;13449;49.374;8.584;2023-11-19T00:17:47;100594.25;;;8.14;100.00
24486;BME280;13449;49.374;8.584;2023-11-19T00:20:17;100596.78;;;8.16;100.00
24486;BME280;13449;49.374;8.584;2023-11-19T00:22:44;100587.97;;;8.17;100.00
24486;BME280;13449;49.374;8.584;2023-11-19T00:25:16;100593.94;;;8.19;100.00
24486;BME280;13449;49.374;8.584;2023-11-19T00:27:46;100596.56;;;8.19;100.00
24486;BME280;13449;49.374;8.584;2023-11-19T00:30:13;100586.06;;;8.19;100.00
24486;BME280;13449;49.374;8.584;2023-11-19T00:32:41;100574.63;;;8.20;100.00
24486;BME280;13449;49.374;8.584;2023-11-19T00:35:08;100580.66;;;8.22;100.00
24486;BME280;13449;49.374;8.584;2023-11-19T00:37:36;100570.16;;;8.22;100.00
24486;BME280;13449;49.374;8.584;2023-11-19T00:40:03;100567.44;;;8.23;100.00
24486;BME280;13449;49.374;8.584;2023-11-19T00:42:32;100564.69;;;8.25;100.00
24486;BME280;13449;49.374;8.584;2023-11-19T00:45:00;100553.25;;;8.26;100.00
24486;BME280;13449;49.374;8.584;2023-11-19T00:47:28;100551.47;;;8.26;100.00
24486;BME280;13449;49.374;8.584;2023-11-19T00:49:54;100549.78;;;8.25;100.00
24486;BME280;13449;49.374;8.584;2023-11-19T00:52:25;100550.44;;;8.29;100.00
24486;BME280;13449;49.374;8.584;2023-11-19T00:54:52;100552.09;;;8.30;100.00
24486;BME280;13449;49.374;8.584;2023-11-19T00:57:20;100560.81;;;8.30;100.00
24486;BME280;13449;49.374;8.584;2023-11-19T00:59:47;100561.66;;;8.31;100.00
24486;BME280;13449;49.374;8.584;2023-11-19T01:02:13;100558.09;;;8.32;100.00
24486;BME280;13449;49.374;8.584;2023-11-19T01:04:40;100557.16;;;8.33;100.00
24486;BME280;13449;49.374;8.584;2023-11-19T01:07:07;100558.94;;;8.32;100.00
24486;BME280;13449;49.374;8.584;2023-11-19T01:09:41;100548.19;;;8.37;100.00
24486;BME280;13449;49.374;8.584;2023-11-19T01:12:08;100539.38;;;8.38;100.00
24486;BME280;13449;49.374;8.584;2023-11-19T01:14:39;100530.53;;;8.39;100.00
24486;BME280;13449;49.374;8.584;2023-11-19T01:17:05;100536.63;;;8.39;100.00
24486;BME280;13449;49.374;8.584;2023-11-19T01:19:32;100548.72;;;8.42;100.00
24486;BME280;13449;49.374;8.584;2023-11-19T01:21:59;100541.56;;;8.44;100.00
24486;BME280;13449;49.374;8.584;2023-11-19T01:24:25;100549.25;;;8.47;100.00
24486;BME280;13449;49.374;8.584;2023-11-19T01:26:57;100545.66;;;8.48;100.00
24486;BME280;13449;49.374;8.584;2023-11-19T01:29:26;100548.19;;;8.50;100.00
24486;BME280;13449;49.374;8.584;2023-11-19T01:31:52;100547.34;;;8.49;100.00
24486;BME280;13449;49.374;8.584;2023-11-19T01:34:19;100552.69;;;8.48;100.00
24486;BME280;13449;49.374;8.584;2023-11-19T01:36:46;100550.72;;;8.51;100.00
24486;BME280;13449;49.374;8.584;2023-11-19T01:39:15;100544.44;;;8.54;100.00
24486;BME280;13449;49.374;8.584;2023-11-19T01:41:46;100543.59;;;8.53;100.00
24486;BME280;13449;49.374;8.584;2023-11-19T01:44:15;100546.00;;;8.56;100.00
24486;BME280;13449;49.374;8.584;2023-11-19T01:46:44;100544.00;;;8.60;100.00
24486;BME280;13449;49.374;8.584;2023-11-19T01:49:12;100536.97;;;8.60;100.00
24486;BME280;13449;49.374;8.584;2023-11-19T01:51:40;100537.72;;;8.62;100.00
24486;BME280;13449;49.374;8.584;2023-11-19T01:54:10;100535.81;;;8.64;100.00
24486;BME280;13449;49.374;8.584;2023-11-19T01:56:38;100524.38;;;8.65;100.00
24486;BME280;13449;49.374;8.584;2023-11-19T01:59:09;100522.69;;;8.64;100.00
24486;BME280;13449;49.374;8.584;2023-11-19T02:01:40;100511.25;;;8.65;100.00
24486;BME280;13449;49.374;8.584;2023-11-19T02:04:08;100517.16;;;8.69;100.00
24486;BME280;13449;49.374;8.584;2023-11-19T02:06:40;100513.56;;;8.70;100.00
24486;BME280;13449;49.374;8.584;2023-11-19T02:09:07;100510.84;;;8.72;100.00
24486;BME280;13449;49.374;8.584;2023-11-19T02:11:34;100507.16;;;8.74;100.00
24486;BME280;13449;49.374;8.584;2023-11-19T02:14:01;100490.56;;;8.74;100.00
24486;BME280;13449;49.374;8.584;2023-11-19T02:16:30;100483.53;;;8.74;100.00
24486;BME280;13449;49.374;8.584;2023-11-19T02:19:01;100495.59;;;8.77;100.00
24486;BME280;13449;49.374;8.584;2023-11-19T02:21:28;100509.56;;;8.77;100.00
24486;BME280;13449;49.374;8.584;2023-11-19T02:23:58;100489.41;;;8.78;100.00
24486;BME280;13449;49.374;8.584;2023-11-19T02:29:11;100482.47;;;8.77;100.00
24486;BME280;13449;49.374;8.584;2023-11-19T02:31:37;100464.81;;;8.79;100.00
24486;BME280;13449;49.374;8.584;2023-11-19T02:34:06;100457.78;;;8.79;100.00
24486;BME280;13449;49.374;8.584;2023-11-19T02:36:33;100457.66;;;8.81;100.00
24486;BME280;13449;49.374;8.584;2023-11-19T02:38:59;100457.66;;;8.81;100.00
24486;BME280;13449;49.374;8.584;2023-11-19T02:41:26;100456.59;;;8.83;100.00
24486;BME280;13449;49.374;8.584;2023-11-19T02:43:54;100451.34;;;8.83;100.00
24486;BME280;13449;49.374;8.584;2023-11-19T02:46:24;100464.19;;;8.88;100.00
24486;BME280;13449;49.374;8.584;2023-11-19T02:48:51;100463.34;;;8.87;100.00
24486;BME280;13449;49.374;8.584;2023-11-19T02:51:18;100460.63;;;8.89;100.00
24486;BME280;13449;49.374;8.584;2023-11-19T02:53:45;100457.78;;;8.92;100.00
24486;BME280;13449;49.374;8.584;2023-11-19T02:56:14;100462.06;;;8.93;100.00
24486;BME280;13449;49.374;8.584;2023-11-19T02:58:52;100460.41;;;8.92;100.00
24486;BME280;13449;49.374;8.584;2023-11-19T03:01:26;100459.13;;;8.97;100.00
24486;BME280;13449;49.374;8.584;2023-11-19T03:03:58;100446.63;;;9.01;100.00
24486;BME280;13449;49.374;8.584;2023-11-19T03:06:25;100441.16;;;9.04;100.00
24486;BME280;13449;49.374;8.584;2023-11-19T03:08:54;100429.69;;;9.05;100.00
24486;BME280;13449;49.374;8.584;2023-11-19T03:11:21;100427.78;;;9.07;100.00
24486;BME280;13449;49.374;8.584;2023-11-19T03:13:47;100414.44;;;9.10;100.00
24486;BME280;13449;49.374;8.584;2023-11-19T03:16:16;100408.56;;;9.07;100.00
24486;BME280;13449;49.374;8.584;2023-11-19T03:18:46;100407.38;;;9.11;100.00
24486;BME280;13449;49.374;8.584;2023-11-19T03:21:12;100414.84;;;9.17;100.00
24486;BME280;13449;49.374;8.584;2023-11-19T03:23:39;100410.31;;;9.19;100.00
24486;BME280;13449;49.374;8.584;2023-11-19T03:26:07;100401.38;;;9.21;100.00
24486;BME280;13449;49.374;8.584;2023-11-19T03:28:34;100405.56;;;9.24;100.00
24486;BME280;13449;49.374;8.584;2023-11-19T03:31:01;100403.78;;;9.24;100.00
24486;BME280;13449;49.374;8.584;2023-11-19T03:33:27;100401.03;;;9.26;100.00
24486;BME280;13449;49.374;8.584;2023-11-19T03:35:56;100397.44;;;9.27;100.00
24486;BME280;13449;49.374;8.584;2023-11-19T03:38:23;100399.78;;;9.32;100.00
24486;BME280;13449;49.374;8.584;2023-11-19T03:40:51;100398.81;;;9.33;100.00
24486;BME280;13449;49.374;8.584;2023-11-19T03:43:22;100397.63;;;9.37;100.00
24486;BME280;13449;49.374;8.584;2023-11-19T03:45:49;100395.84;;;9.37;100.00
24486;BME280;13449;49.374;8.584;2023-11-19T03:48:16;100393.09;;;9.39;100.00
24486;BME280;13449;49.374;8.584;2023-11-19T03:50:43;100392.88;;;9.42;100.00
24486;BME280;13449;49.374;8.584;2023-11-19T03:53:09;100391.69;;;9.46;100.00
24486;BME280;13449;49.374;8.584;2023-11-19T03:55:36;100381.09;;;9.47;100.00
24486;BME280;13449;49.374;8.584;2023-11-19T03:58:02;100385.41;;;9.48;100.00
24486;BME280;13449;49.374;8.584;2023-11-19T04:00:29;100378.22;;;9.50;100.00
24486;BME280;13449;49.374;8.584;2023-11-19T04:02:55;100388.88;;;9.49;100.00
24486;BME280;13449;49.374;8.584;2023-11-19T04:05:22;100394.63;;;9.54;100.00
24486;BME280;13449;49.374;8.584;2023-11-19T04:07:48;100383.88;;;9.57;100.00
24486;BME280;13449;49.374;8.584;2023-11-19T04:10:15;100375.75;;;9.60;100.00
24486;BME280;13449;49.374;8.584;2023-11-19T04:12:43;100374.06;;;9.59;100.00
24486;BME280;13449;49.374;8.584;2023-11-19T04:15:10;100374.59;;;9.64;100.00
24486;BME280;13449;49.374;8.584;2023-11-19T04:17:37;100376.47;;;9.62;100.00
24486;BME280;13449;49.374;8.584;2023-11-19T04:20:06;100375.53;;;9.63;100.00
24486;BME280;13449;49.374;8.584;2023-11-19T04:22:37;100370.78;;;9.68;100.00
24486;BME280;13449;49.374;8.584;2023-11-19T04:25:04;100381.06;;;9.71;100.00
24486;BME280;13449;49.374;8.584;2023-11-19T04:27:31;100391.34;;;9.74;100.00
24486;BME280;13449;49.374;8.584;2023-11-19T04:29:59;100385.13;;;9.75;100.00
24486;BME280;13449;49.374;8.584;2023-11-19T04:32:28;100396.16;;;9.80;100.00
24486;BME280;13449;49.374;8.584;2023-11-19T04:34:55;100404.78;;;9.82;100.00
24486;BME280;13449;49.374;8.584;2023-11-19T04:37:22;100392.59;;;9.81;100.00
24486;BME280;13449;49.374;8.584;2023-11-19T04:39:48;100389.00;;;9.82;100.00
24486;BME280;13449;49.374;8.584;2023-11-19T04:42:15;100384.47;;;9.84;100.00
24486;BME280;13449;49.374;8.584;2023-11-19T04:44:43;100387.56;;;9.89;100.00
24486;BME280;13449;49.374;8.584;2023-11-19T04:47:10;100383.03;;;9.91;100.00
24486;BME280;13449;49.374;8.584;2023-11-19T04:49:40;100370.59;;;9.94;100.00
24486;BME280;13449;49.374;8.584;2023-11-19T04:52:11;100377.78;;;9.91;100.00
24486;BME280;13449;49.374;8.584;2023-11-19T04:54:42;100373.97;;;9.96;100.00
24486;BME280;13449;49.374;8.584;2023-11-19T04:57:11;100372.06;;;9.98;100.00
24486;BME280;13449;49.374;8.584;2023-11-19T04:59:38;100380.78;;;9.98;100.00
24486;BME280;13449;49.374;8.584;2023-11-19T05:02:08;100382.34;;;10.01;100.00
24486;BME280;13449;49.374;8.584;2023-11-19T05:04:34;100369.19;;;10.01;100.00
24486;BME280;13449;49.374;8.584;2023-11-19T05:07:01;100358.56;;;10.02;100.00
24486;BME280;13449;49.374;8.584;2023-11-19T05:09:27;100368.00;;;10.05;100.00
24486;BME280;13449;49.374;8.584;2023-11-19T05:11:54;100360.81;;;10.07;100.00
24486;BME280;13449;49.374;8.584;2023-11-19T05:14:20;100363.13;;;10.11;100.00
24486;BME280;13449;49.374;8.584;2023-11-19T05:16:48;100361.66;;;10.07;100.00
24486;BME280;13449;49.374;8.584;2023-11-19T05:19:15;100360.63;;;10.10;100.00
24486;BME280;13449;49.374;8.584;2023-11-19T05:21:42;100358.91;;;10.09;100.00
24486;BME280;13449;49.374;8.584;2023-11-19T05:24:11;100362.16;;;10.12;100.00
24486;BME280;13449;49.374;8.584;2023-11-19T05:26:38;100367.31;;;10.14;100.00
24486;BME280;13449;49.374;8.584;2023-11-19T05:29:05;100365.41;;;10.16;100.00
24486;BME280;13449;49.374;8.584;2023-11-19T05:31:31;100368.03;;;10.16;100.00
24486;BME280;13449;49.374;8.584;2023-11-19T05:34:02;100368.75;;;10.18;100.00
24486;BME280;13449;49.374;8.584;2023-11-19T05:36:29;100366.63;;;10.23;100.00
24486;BME280;13449;49.374;8.584;2023-11-19T05:38:56;100370.84;;;10.26;100.00
24486;BME280;13449;49.374;8.584;2023-11-19T05:41:22;100366.28;;;10.28;100.00
24486;BME280;13449;49.374;8.584;2023-11-19T05:43:51;100359.44;;;10.25;100.00
24486;BME280;13449;49.374;8.584;2023-11-19T05:46:18;100359.44;;;10.25;100.00
24486;BME280;13449;49.374;8.584;2023-11-19T05:48:46;100362.59;;;10.30;100.00
24486;BME280;13449;49.374;8.584;2023-11-19T05:51:15;100364.25;;;10.31;100.00
24486;BME280;13449;49.374;8.584;2023-11-19T05:53:42;100354.31;;;10.35;100.00
24486;BME280;13449;49.374;8.584;2023-11-19T05:56:32;100349.19;;;10.33;100.00
24486;BME280;13449;49.374;8.584;2023-11-19T05:59:02;100343.66;;;10.36;100.00
24486;BME280;13449;49.374;8.584;2023-11-19T06:01:41;100336.72;;;10.35;100.00
24486;BME280;13449;49.374;8.584;2023-11-19T06:04:10;100339.34;;;10.35;100.00
24486;BME280;13449;49.374;8.584;2023-11-19T06:06:37;100326.91;;;10.37;100.00
24486;BME280;13449;49.374;8.584;2023-11-19T06:09:06;100331.94;;;10.40;100.00
24486;BME280;13449;49.374;8.584;2023-11-19T06:11:38;100330.03;;;10.42;100.00
24486;BME280;13449;49.374;8.584;2023-11-19T06:14:06;100336.16;;;10.43;100.00
24486;BME280;13449;49.374;8.584;2023-11-19T06:16:34;100339.38;;;10.46;100.00
24486;BME280;13449;49.374;8.584;2023-11-19T06:19:03;100342.34;;;10.53;100.00
24486;BME280;13449;49.374;8.584;2023-11-19T06:21:29;100339.59;;;10.55;100.00
24486;BME280;13449;49.374;8.584;2023-11-19T06:23:58;100342.94;;;10.57;100.00
24486;BME280;13449;49.374;8.584;2023-11-19T06:26:25;100346.06;;;10.62;100.00
24486;BME280;13449;49.374;8.584;2023-11-19T06:28:52;100350.38;;;10.63;100.00
24486;BME280;13449;49.374;8.584;2023-11-19T06:31:18;100346.41;;;10.68;100.00
24486;BME280;13449;49.374;8.584;2023-11-19T06:33:47;100350.84;;;10.68;100.00
24486;BME280;13449;49.374;8.584;2023-11-19T06:36:14;100342.69;;;10.71;100.00
24486;BME280;13449;49.374;8.584;2023-11-19T06:38:43;100353.72;;;10.76;100.00
24486;BME280;13449;49.374;8.584;2023-11-19T06:41:09;100351.69;;;10.79;100.00
24486;BME280;13449;49.374;8.584;2023-11-19T06:43:39;100353.22;;;10.82;100.00
24486;BME280;13449;49.374;8.584;2023-11-19T06:46:16;100354.19;;;10.81;100.00
24486;BME280;13449;49.374;8.584;2023-11-19T06:48:44;100353.22;;;10.82;100.00
24486;BME280;13449;49.374;8.584;2023-11-19T06:51:11;100350.00;;;10.78;100.00
24486;BME280;13449;49.374;8.584;2023-11-19T06:53:40;100349.28;;;10.76;100.00
24486;BME280;13449;49.374;8.584;2023-11-19T06:56:21;100349.41;;;10.75;100.00
24486;BME280;13449;49.374;8.584;2023-11-19T06:58:48;100358.75;;;10.68;100.00
24486;BME280;13449;49.374;8.584;2023-11-19T07:01:16;100373.13;;;10.75;100.00
24486;BME280;13449;49.374;8.584;2023-11-19T07:03:42;100381.03;;;10.75;100.00
24486;BME280;13449;49.374;8.584;2023-11-19T07:06:10;100383.41;;;10.78;100.00
24486;BME280;13449;49.374;8.584;2023-11-19T07:08:36;100374.31;;;10.82;100.00
24486;BME280;13449;49.374;8.584;2023-11-19T07:11:03;100381.25;;;10.83;100.00
24486;BME280;13449;49.374;8.584;2023-11-19T07:13:32;100375.63;;;10.88;100.00
24486;BME280;13449;49.374;8.584;2023-11-19T07:15:58;100382.94;;;10.84;100.00
24486;BME280;13449;49.374;8.584;2023-11-19T07:18:25;100384.97;;;10.92;100.00
24486;BME280;13449;49.374;8.584;2023-11-19T07:20:51;100387.50;;;10.93;100.00
24486;BME280;13449;49.374;8.584;2023-11-19T07:23:18;100385.56;;;10.95;100.00
24486;BME280;13449;49.374;8.584;2023-11-19T07:25:44;100388.91;;;10.97;100.00
24486;BME280;13449;49.374;8.584;2023-11-19T07:28:13;100386.41;;;10.96;100.00
24486;BME280;13449;49.374;8.584;2023-11-19T07:30:40;100386.28;;;10.97;100.00
24486;BME280;13449;49.374;8.584;2023-11-19T07:33:08;100395.16;;;10.96;100.00
24486;BME280;13449;49.374;8.584;2023-11-19T07:35:34;100400.88;;;11.01;100.00
24486;BME280;13449;49.374;8.584;2023-11-19T07:38:01;100412.63;;;10.97;100.00
24486;BME280;13449;49.374;8.584;2023-11-19T07:40:28;100411.41;;;11.01;100.00
24486;BME280;13449;49.374;8.584;2023-11-19T07:42:55;100415.50;;;11.05;100.00
24486;BME280;13449;49.374;8.584;2023-11-19T07:45:23;100423.16;;;11.08;100.00
24486;BME280;13449;49.374;8.584;2023-11-19T07:47:50;100416.94;;;11.09;100.00
24486;BME280;13449;49.374;8.584;2023-11-19T07:50:18;100417.78;;;11.10;100.00
24486;BME280;13449;49.374;8.584;2023-11-19T07:52:46;100417.53;;;11.13;100.00
24486;BME280;13449;49.374;8.584;2023-11-19T07:55:15;100404.22;;;11.15;100.00
24486;BME280;13449;49.374;8.584;2023-11-19T07:57:49;100407.94;;;11.12;100.00
24486;BME280;13449;49.374;8.584;2023-11-19T08:00:16;100418.22;;;11.15;100.00
24486;BME280;13449;49.374;8.584;2023-11-19T08:02:45;100417.41;;;11.15;100.00
24486;BME280;13449;49.374;8.584;2023-11-19T08:05:11;100417.41;;;11.15;100.00
24486;BME280;13449;49.374;8.584;2023-11-19T08:07:40;100413.22;;;11.12;100.00
24486;BME280;13449;49.374;8.584;2023-11-19T08:10:07;100410.44;;;11.14;100.00
24486;BME280;13449;49.374;8.584;2023-11-19T08:12:37;100419.31;;;11.13;100.00
24486;BME280;13449;49.374;8.584;2023-11-19T08:15:04;100419.78;;;11.18;100.00
24486;BME280;13449;49.374;8.584;2023-11-19T08:17:31;100414.63;;;11.16;100.00
24486;BME280;13449;49.374;8.584;2023-11-19T08:19:57;100432.00;;;11.19;100.00
24486;BME280;13449;49.374;8.584;2023-11-19T08:22:26;100425.78;;;11.20;100.00
24486;BME280;13449;49.374;8.584;2023-11-19T08:24:53;100426.50;;;11.22;100.00
24486;BME280;13449;49.374;8.584;2023-11-19T08:27:19;100433.34;;;11.24;100.00
24486;BME280;13449;49.374;8.584;2023-11-19T08:29:55;100425.56;;;11.23;100.00
24486;BME280;13449;49.374;8.584;2023-11-19T08:32:30;100426.72;;;11.19;100.00
24486;BME280;13449;49.374;8.584;2023-11-19T08:34:59;100416.94;;;11.21;100.00
24486;BME280;13449;49.374;8.584;2023-11-19T08:37:25;100416.94;;;11.21;100.00
24486;BME280;13449;49.374;8.584;2023-11-19T08:39:52;100423.38;;;11.28;100.00
24486;BME280;13449;49.374;8.584;2023-11-19T08:42:19;100415.91;;;11.33;100.00
24486;BME280;13449;49.374;8.584;2023-11-19T08:44:49;100427.16;;;11.46;100.00
24486;BME280;13449;49.374;8.584;2023-11-19T08:47:17;100429.53;;;11.60;100.00
24486;BME280;13449;49.374;8.584;2023-11-19T08:49:46;100411.88;;;11.72;100.00
24486;BME280;13449;49.374;8.584;2023-11-19T08:52:30;100419.16;;;11.80;100.00
24486;BME280;13449;49.374;8.584;2023-11-19T08:55:00;100425.16;;;11.82;100.00
24486;BME280;13449;49.374;8.584;2023-11-19T08:57:27;100428.63;;;11.82;100.00
24486;BME280;13449;49.374;8.584;2023-11-19T08:59:53;100423.69;;;11.89;100.00
24486;BME280;13449;49.374;8.584;2023-11-19T09:02:20;100418.03;;;11.93;100.00
24486;BME280;13449;49.374;8.584;2023-11-19T09:04:46;100416.56;;;12.01;100.00
24486;BME280;13449;49.374;8.584;2023-11-19T09:07:14;100428.28;;;12.08;100.00
24486;BME280;13449;49.374;8.584;2023-11-19T09:09:43;100443.59;;;12.14;100.00
24486;BME280;13449;49.374;8.584;2023-11-19T09:12:12;100442.75;;;12.13;100.00
24486;BME280;13449;49.374;8.584;2023-11-19T09:14:40;100444.25;;;12.06;100.00
24486;BME280;13449;49.374;8.584;2023-11-19T09:17:06;100430.22;;;12.06;100.00
24486;BME280;13449;49.374;8.584;2023-11-19T09:19:33;100424.81;;;12.07;100.00
24486;BME280;13449;49.374;8.584;2023-11-19T09:22:02;100432.06;;;12.15;100.00
24486;BME280;13449;49.374;8.584;2023-11-19T09:24:29;100428.09;;;12.20;100.00
24486;BME280;13449;49.374;8.584;2023-11-19T09:26:55;100442.84;;;12.23;100.00
24486;BME280;13449;49.374;8.584;2023-11-19T09:29:22;100436.19;;;12.28;100.00
24486;BME280;13449;49.374;8.584;2023-11-19T09:31:51;100432.50;;;12.31;100.00
24486;BME280;13449;49.374;8.584;2023-11-19T09:34:18;100441.69;;;12.37;100.00
24486;BME280;13449;49.374;8.584;2023-11-19T09:36:47;100437.03;;;12.50;100.00
24486;BME280;13449;49.374;8.584;2023-11-19T09:39:13;100430.78;;;12.51;100.00
24486;BME280;13449;49.374;8.584;2023-11-19T09:41:41;100445.84;;;12.60;100.00
24486;BME280;13449;49.374;8.584;2023-11-19T09:44:09;100448.16;;;12.74;100.00
24486;BME280;13449;49.374;8.584;2023-11-19T09:46:36;100453.56;;;12.73;100.00
24486;BME280;13449;49.374;8.584;2023-11-19T09:49:04;100449.38;;;12.70;100.00
24486;BME280;13449;49.374;8.584;2023-11-19T09:51:31;100455.56;;;12.80;100.00
24486;BME280;13449;49.374;8.584;2023-11-19T09:53:57;100454.06;;;12.87;100.00
24486;BME280;13449;49.374;8.584;2023-11-19T09:56:28;100455.91;;;12.97;100.00
24486;BME280;13449;49.374;8.584;2023-11-19T09:58:55;100456.34;;;13.02;100.00
24486;BME280;13449;49.374;8.584;2023-11-19T10:01:22;100459.41;;;13.07;100.00
24486;BME280;13449;49.374;8.584;2023-11-19T10:03:55;100461.28;;;13.16;100.00
24486;BME280;13449;49.374;8.584;2023-11-19T10:06:22;100461.28;;;13.16;100.00
24486;BME280;13449;49.374;8.584;2023-11-19T10:08:51;100450.44;;;13.19;100.00
24486;BME280;13449;49.374;8.584;2023-11-19T10:11:18;100455.31;;;13.24;100.00
24486;BME280;13449;49.374;8.584;2023-11-19T10:13:44;100459.78;;;13.23;100.00
24486;BME280;13449;49.374;8.584;2023-11-19T10:16:17;100456.63;;;13.08;100.00
24486;BME280;13449;49.374;8.584;2023-11-19T10:18:48;100453.16;;;13.08;100.00
24486;BME280;13449;49.374;8.584;2023-11-19T10:21:22;100464.75;;;13.16;100.00
24486;BME280;13449;49.374;8.584;2023-11-19T10:23:58;100451.66;;;13.15;100.00
24486;BME280;13449;49.374;8.584;2023-11-19T10:26:27;100447.81;;;13.19;100.00
24486;BME280;13449;49.374;8.584;2023-11-19T10:28:55;100448.97;;;13.26;100.00
24486;BME280;13449;49.374;8.584;2023-11-19T10:31:24;100439.50;;;13.33;100.00
24486;BME280;13449;49.374;8.584;2023-11-19T10:33:55;100445.63;;;13.34;100.00
24486;BME280;13449;49.374;8.584;2023-11-19T10:36:22;100439.63;;;13.32;100.00
24486;BME280;13449;49.374;8.584;2023-11-19T10:38:55;100451.75;;;13.34;100.00
24486;BME280;13449;49.374;8.584;2023-11-19T10:41:29;100443.41;;;13.39;100.00
24486;BME280;13449;49.374;8.584;2023-11-19T10:44:00;100449.00;;;13.45;100.00
24486;BME280;13449;49.374;8.584;2023-11-19T10:46:38;100444.81;;;13.53;100.00
24486;BME280;13449;49.374;8.584;2023-11-19T10:49:07;100455.97;;;13.46;100.00
24486;BME280;13449;49.374;8.584;2023-11-19T10:51:34;100448.72;;;13.48;100.00
24486;BME280;13449;49.374;8.584;2023-11-19T10:54:05;100453.03;;;13.49;100.00
24486;BME280;13449;49.374;8.584;2023-11-19T10:56:33;100447.06;;;13.47;100.00
24486;BME280;13449;49.374;8.584;2023-11-19T10:59:00;100453.44;;;13.55;100.00
24486;BME280;13449;49.374;8.584;2023-11-19T11:01:33;100444.97;;;13.61;100.00
24486;BME280;13449;49.374;8.584;2023-11-19T11:04:02;100458.06;;;13.62;100.00
24486;BME280;13449;49.374;8.584;2023-11-19T11:06:29;100465.47;;;13.59;100.00
24486;BME280;13449;49.374;8.584;2023-11-19T11:08:56;100472.69;;;13.57;100.00
24486;BME280;13449;49.374;8.584;2023-11-19T11:11:23;100474.09;;;13.61;100.00
24486;BME280;13449;49.374;8.584;2023-11-19T11:13:53;100466.31;;;13.59;100.00
24486;BME280;13449;49.374;8.584;2023-11-19T11:16:22;100472.97;;;13.63;100.00
24486;BME280;13449;49.374;8.584;2023-11-19T11:18:49;100478.41;;;13.62;100.00
24486;BME280;13449;49.374;8.584;2023-11-19T11:21:21;100478.09;;;13.55;100.00
24486;BME280;13449;49.374;8.584;2023-11-19T11:33:06;100508.81;;;13.77;100.00
24486;BME280;13449;49.374;8.584;2023-11-19T11:36:13;100517.34;;;13.90;100.00
24486;BME280;13449;49.374;8.584;2023-11-19T11:38:43;100513.31;;;14.05;100.00
24486;BME280;13449;49.374;8.584;2023-11-19T11:41:26;100501.75;;;14.06;100.00
24486;BME280;13449;49.374;8.584;2023-11-19T11:43:55;100502.00;;;14.03;100.00
24486;BME280;13449;49.374;8.584;2023-11-19T11:49:06;100501.31;;;13.92;100.00
24486;BME280;13449;49.374;8.584;2023-11-19T11:54:32;100523.16;;;13.84;100.00
24486;BME280;13449;49.374;8.584;2023-11-19T11:57:12;100526.53;;;13.96;100.00
24486;BME280;13449;49.374;8.584;2023-11-19T12:02:13;100544.06;;;13.87;100.00
24486;BME280;13449;49.374;8.584;2023-11-19T12:04:40;100550.78;;;13.91;100.00
24486;BME280;13449;49.374;8.584;2023-11-19T12:07:14;100566.13;;;13.97;100.00
24486;BME280;13449;49.374;8.584;2023-11-19T12:09:42;100570.03;;;13.93;100.00
24486;BME280;13449;49.374;8.584;2023-11-19T12:20:05;100595.94;;;13.99;100.00
24486;BME280;13449;49.374;8.584;2023-11-19T12:22:39;100592.63;;;14.17;100.00
24486;BME280;13449;49.374;8.584;2023-11-19T12:25:08;100587.91;;;14.20;100.00
24486;BME280;13449;49.374;8.584;2023-11-19T12:27:36;100593.22;;;14.30;100.00
24486;BME280;13449;49.374;8.584;2023-11-19T12:30:03;100582.78;;;14.38;100.00
24486;BME280;13449;49.374;8.584;2023-11-19T12:32:51;100567.56;;;14.21;100.00
24486;BME280;13449;49.374;8.584;2023-11-19T12:35:20;100552.47;;;14.12;100.00
24486;BME280;13449;49.374;8.584;2023-11-19T12:37:48;100537.59;;;14.20;100.00
24486;BME280;13449;49.374;8.584;2023-11-19T12:40:23;100520.41;;;14.15;100.00
24486;BME280;13449;49.374;8.584;2023-11-19T12:42:52;100496.44;;;14.16;100.00
24486;BME280;13449;49.374;8.584;2023-11-19T12:45:20;100494.91;;;14.14;100.00
24486;BME280;13449;49.374;8.584;2023-11-19T12:47:47;100483.63;;;14.12;100.00
24486;BME280;13449;49.374;8.584;2023-11-19T12:50:17;100474.13;;;13.99;100.00
24486;BME280;13449;49.374;8.584;2023-11-19T12:52:58;100463.81;;;13.96;100.00
24486;BME280;13449;49.374;8.584;2023-11-19T12:55:28;100454.78;;;13.89;100.00
24486;BME280;13449;49.374;8.584;2023-11-19T12:57:56;100442.63;;;13.87;100.00
24486;BME280;13449;49.374;8.584;2023-11-19T13:00:26;100437.47;;;13.75;100.00
24486;BME280;13449;49.374;8.584;2023-11-19T13:02:54;100434.81;;;13.66;100.00
24486;BME280;13449;49.374;8.584;2023-11-19T13:08:04;100432.56;;;13.52;100.00
24486;BME280;13449;49.374;8.584;2023-11-19T13:13:17;100419.16;;;13.34;100.00
24486;BME280;13449;49.374;8.584;2023-11-19T13:15:43;100415.66;;;13.24;100.00
24486;BME280;13449;49.374;8.584;2023-11-19T13:18:11;100405.72;;;13.16;100.00
24486;BME280;13449;49.374;8.584;2023-11-19T13:20:38;100393.63;;;13.13;100.00
24486;BME280;13449;49.374;8.584;2023-11-19T13:23:06;100382.59;;;13.08;100.00